sensor_id;sensor_type;location;lat;lon;timestamp;pressure;altitude;pressure_sealevel;temperature;humidity
49459;BME280;35354;51.296;16.924;2023-05-10T00:00:20;99645.03;;;9.45;67.17
49459;BME280;35354;51.296;16.924;2023-05-10T00:02:47;99600.66;;;9.29;67.01
49459;BME280;35354;51.296;16.924;2023-05-10T00:05:13;99641.66;;;9.43;67.46
49459;BME280;35354;51.296;16.924;2023-05-10T00:07:38;99649.97;;;9.51;67.29
49459;BME280;35354;51.296;16.924;2023-05-10T00:10:04;99593.06;;;9.24;67.17
49459;BME280;35354;51.296;16.924;2023-05-10T00:12:29;99644.13;;;9.46;67.86
49459;BME280;35354;51.296;16.924;2023-05-10T00:14:55;99615.59;;;9.24;67.84
49459;BME280;35354;51.296;16.924;2023-05-10T00:17:20;99659.84;;;9.43;68.06
49459;BME280;35354;51.296;16.924;2023-05-10T00:19:45;99625.28;;;9.20;67.90
49459;BME280;35354;51.296;16.924;2023-05-10T00:22:11;99650.56;;;9.37;68.03
49459;BME280;35354;51.296;16.924;2023-05-10T00:24:36;99626.84;;;9.24;68.11
49459;BME280;35354;51.296;16.924;2023-05-10T00:27:01;99638.19;;;9.22;68.17
49459;BME280;35354;51.296;16.924;2023-05-10T00:29:29;99618.63;;;9.13;68.42
49459;BME280;35354;51.296;16.924;2023-05-10T00:31:54;99636.19;;;9.29;68.37
49459;BME280;35354;51.296;16.924;2023-05-10T00:34:20;99621.38;;;9.10;68.47
49459;BME280;35354;51.296;16.924;2023-05-10T00:36:45;99608.53;;;9.06;68.62
49459;BME280;35354;51.296;16.924;2023-05-10T00:39:10;99649.72;;;9.37;68.54
49459;BME280;35354;51.296;16.924;2023-05-10T00:41:36;99626.91;;;9.23;68.47
49459;BME280;35354;51.296;16.924;2023-05-10T00:44:01;99629.09;;;9.12;68.91
49459;BME280;35354;51.296;16.924;2023-05-10T00:46:27;99603.16;;;8.90;69.08
49459;BME280;35354;51.296;16.924;2023-05-10T00:48:53;99646.13;;;9.19;68.98
49459;BME280;35354;51.296;16.924;2023-05-10T00:51:19;99618.53;;;8.94;69.08
49459;BME280;35354;51.296;16.924;2023-05-10T00:53:48;99626.72;;;9.06;69.17
49459;BME280;35354;51.296;16.924;2023-05-10T00:56:15;99578.94;;;8.67;69.43
49459;BME280;35354;51.296;16.924;2023-05-10T00:58:40;99620.31;;;8.94;69.53
49459;BME280;35354;51.296;16.924;2023-05-10T01:01:06;99599.22;;;8.80;69.72
49459;BME280;35354;51.296;16.924;2023-05-10T01:03:33;99627.09;;;8.96;69.81
49459;BME280;35354;51.296;16.924;2023-05-10T01:05:58;99597.53;;;8.79;69.91
49459;BME280;35354;51.296;16.924;2023-05-10T01:08:25;99614.19;;;8.95;69.60
49459;BME280;35354;51.296;16.924;2023-05-10T01:10:50;99625.50;;;8.94;69.84
49459;BME280;35354;51.296;16.924;2023-05-10T01:13:28;99592.59;;;8.72;70.14
49459;BME280;35354;51.296;16.924;2023-05-10T01:15:56;99633.31;;;8.92;70.18
49459;BME280;35354;51.296;16.924;2023-05-10T01:18:21;99592.75;;;8.68;70.52
49459;BME280;35354;51.296;16.924;2023-05-10T01:20:49;99597.91;;;8.69;70.46
49459;BME280;35354;51.296;16.924;2023-05-10T01:23:36;99613.78;;;8.84;70.32
49459;BME280;35354;51.296;16.924;2023-05-10T01:34:54;99625.44;;;8.73;70.78
49459;BME280;35354;51.296;16.924;2023-05-10T01:37:36;99632.13;;;8.79;71.28
49459;BME280;35354;51.296;16.924;2023-05-10T01:40:17;99624.06;;;8.65;71.59
49459;BME280;35354;51.296;16.924;2023-05-10T01:42:50;99618.06;;;8.63;71.47
49459;BME280;35354;51.296;16.924;2023-05-10T01:48:08;99622.22;;;8.67;71.69
49459;BME280;35354;51.296;16.924;2023-05-10T01:50:35;99629.16;;;8.66;71.59
49459;BME280;35354;51.296;16.924;2023-05-10T01:53:02;99607.81;;;8.60;71.95
49459;BME280;35354;51.296;16.924;2023-05-10T01:55:33;99627.72;;;8.59;71.72
49459;BME280;35354;51.296;16.924;2023-05-10T01:58:05;99623.25;;;8.63;71.80
49459;BME280;35354;51.296;16.924;2023-05-10T02:00:32;99589.66;;;8.36;72.22
49459;BME280;35354;51.296;16.924;2023-05-10T02:03:00;99624.63;;;8.49;72.74
49459;BME280;35354;51.296;16.924;2023-05-10T02:05:28;99619.44;;;8.49;72.36
49459;BME280;35354;51.296;16.924;2023-05-10T02:07:55;99626.22;;;8.54;72.42
49459;BME280;35354;51.296;16.924;2023-05-10T02:10:21;99588.16;;;8.31;72.59
49459;BME280;35354;51.296;16.924;2023-05-10T02:12:47;99594.09;;;8.33;72.66
49459;BME280;35354;51.296;16.924;2023-05-10T02:15:22;99594.91;;;8.35;72.48
49459;BME280;35354;51.296;16.924;2023-05-10T02:17:49;99583.41;;;8.18;72.75
49459;BME280;35354;51.296;16.924;2023-05-10T02:20:16;99594.91;;;8.35;73.05
49459;BME280;35354;51.296;16.924;2023-05-10T02:22:42;99576.91;;;8.30;72.97
49459;BME280;35354;51.296;16.924;2023-05-10T02:25:11;99599.69;;;8.45;73.01
49459;BME280;35354;51.296;16.924;2023-05-10T02:27:38;99600.03;;;8.36;72.93
49459;BME280;35354;51.296;16.924;2023-05-10T02:30:06;99581.06;;;8.34;72.61
49459;BME280;35354;51.296;16.924;2023-05-10T02:32:33;99569.97;;;8.31;72.95
49459;BME280;35354;51.296;16.924;2023-05-10T02:35:01;99598.97;;;8.42;73.07
49459;BME280;35354;51.296;16.924;2023-05-10T02:37:28;99572.97;;;8.20;73.37
49459;BME280;35354;51.296;16.924;2023-05-10T02:39:55;99568.47;;;8.02;73.27
49459;BME280;35354;51.296;16.924;2023-05-10T02:42:25;99555.56;;;8.00;73.74
49459;BME280;35354;51.296;16.924;2023-05-10T02:44:53;99575.84;;;8.12;73.48
49459;BME280;35354;51.296;16.924;2023-05-10T02:47:20;99605.56;;;8.27;73.73
49459;BME280;35354;51.296;16.924;2023-05-10T02:49:46;99598.63;;;8.28;73.89
49459;BME280;35354;51.296;16.924;2023-05-10T02:52:16;99557.47;;;7.95;73.86
49459;BME280;35354;51.296;16.924;2023-05-10T02:54:46;99605.06;;;8.17;73.85
49459;BME280;35354;51.296;16.924;2023-05-10T02:57:16;99594.34;;;8.27;73.60
49459;BME280;35354;51.296;16.924;2023-05-10T02:59:43;99581.22;;;8.08;73.91
49459;BME280;35354;51.296;16.924;2023-05-10T03:02:10;99602.34;;;8.20;74.19
49459;BME280;35354;51.296;16.924;2023-05-10T03:04:36;99566.50;;;8.08;73.78
49459;BME280;35354;51.296;16.924;2023-05-10T03:07:02;99559.69;;;8.06;73.77
49459;BME280;35354;51.296;16.924;2023-05-10T03:09:27;99602.16;;;8.25;73.82
49459;BME280;35354;51.296;16.924;2023-05-10T03:12:04;99572.03;;;7.99;73.73
49459;BME280;35354;51.296;16.924;2023-05-10T03:20:08;99600.00;;;8.14;73.99
49459;BME280;35354;51.296;16.924;2023-05-10T03:22:38;99580.66;;;7.99;74.31
49459;BME280;35354;51.296;16.924;2023-05-10T03:25:07;99605.22;;;8.13;74.45
49459;BME280;35354;51.296;16.924;2023-05-10T03:27:35;99588.25;;;8.04;74.33
49459;BME280;35354;51.296;16.924;2023-05-10T03:30:02;99566.09;;;7.95;74.30
49459;BME280;35354;51.296;16.924;2023-05-10T03:32:29;99595.59;;;8.16;74.38
49459;BME280;35354;51.296;16.924;2023-05-10T03:34:55;99569.78;;;7.90;74.54
49459;BME280;35354;51.296;16.924;2023-05-10T03:37:21;99584.81;;;8.04;74.42
49459;BME280;35354;51.296;16.924;2023-05-10T03:39:46;99598.97;;;8.18;74.28
49459;BME280;35354;51.296;16.924;2023-05-10T03:42:11;99565.25;;;7.95;74.30
49459;BME280;35354;51.296;16.924;2023-05-10T03:44:40;99582.06;;;8.08;74.63
49459;BME280;35354;51.296;16.924;2023-05-10T03:47:05;99579.28;;;8.13;74.26
49459;BME280;35354;51.296;16.924;2023-05-10T03:49:31;99598.91;;;8.20;73.99
49459;BME280;35354;51.296;16.924;2023-05-10T03:51:56;99557.28;;;8.01;74.28
49459;BME280;35354;51.296;16.924;2023-05-10T03:54:21;99568.22;;;8.09;74.56
49459;BME280;35354;51.296;16.924;2023-05-10T03:56:47;99593.25;;;8.32;74.02
49459;BME280;35354;51.296;16.924;2023-05-10T03:59:13;99550.44;;;8.22;73.88
49459;BME280;35354;51.296;16.924;2023-05-10T04:01:38;99557.78;;;8.33;73.55
49459;BME280;35354;51.296;16.924;2023-05-10T04:04:04;99593.56;;;8.70;72.67
49459;BME280;35354;51.296;16.924;2023-05-10T04:06:29;99566.19;;;8.83;72.05
49459;BME280;35354;51.296;16.924;2023-05-10T04:08:54;99553.03;;;9.29;70.25
49459;BME280;35354;51.296;16.924;2023-05-10T04:11:20;99549.56;;;10.26;67.91
49459;BME280;35354;51.296;16.924;2023-05-10T04:13:47;99573.28;;;11.44;64.64
49459;BME280;35354;51.296;16.924;2023-05-10T04:16:12;99552.16;;;11.99;62.33
49459;BME280;35354;51.296;16.924;2023-05-10T04:18:37;99559.81;;;12.02;61.67
49459;BME280;35354;51.296;16.924;2023-05-10T04:21:03;99578.38;;;11.80;61.95
49459;BME280;35354;51.296;16.924;2023-05-10T04:23:28;99561.72;;;11.32;62.88
49459;BME280;35354;51.296;16.924;2023-05-10T04:25:59;99579.41;;;11.60;62.93
49459;BME280;35354;51.296;16.924;2023-05-10T04:28:25;99567.63;;;11.69;62.54
49459;BME280;35354;51.296;16.924;2023-05-10T04:30:50;99572.09;;;11.84;61.86
49459;BME280;35354;51.296;16.924;2023-05-10T04:33:16;99555.94;;;12.41;60.53
49459;BME280;35354;51.296;16.924;2023-05-10T04:35:41;99557.88;;;13.29;58.77
49459;BME280;35354;51.296;16.924;2023-05-10T04:38:06;99551.38;;;13.79;56.65
49459;BME280;35354;51.296;16.924;2023-05-10T04:40:32;99569.97;;;14.59;55.02
49459;BME280;35354;51.296;16.924;2023-05-10T04:42:57;99539.97;;;14.50;54.90
49459;BME280;35354;51.296;16.924;2023-05-10T04:45:22;99580.97;;;14.22;55.66
49459;BME280;35354;51.296;16.924;2023-05-10T04:47:48;99573.16;;;13.80;56.58
49459;BME280;35354;51.296;16.924;2023-05-10T04:50:13;99550.22;;;13.10;57.46
49459;BME280;35354;51.296;16.924;2023-05-10T04:52:38;99550.13;;;13.28;57.37
49459;BME280;35354;51.296;16.924;2023-05-10T04:55:04;99548.94;;;13.62;56.93
49459;BME280;35354;51.296;16.924;2023-05-10T04:57:29;99583.59;;;14.22;55.94
49459;BME280;35354;51.296;16.924;2023-05-10T04:59:55;99566.28;;;15.41;53.57
49459;BME280;35354;51.296;16.924;2023-05-10T05:02:20;99578.06;;;16.36;51.60
49459;BME280;35354;51.296;16.924;2023-05-10T05:04:45;99578.31;;;16.57;51.23
49459;BME280;35354;51.296;16.924;2023-05-10T05:07:11;99569.53;;;16.45;51.30
49459;BME280;35354;51.296;16.924;2023-05-10T05:09:36;99549.38;;;15.83;52.05
49459;BME280;35354;51.296;16.924;2023-05-10T05:12:02;99572.63;;;15.77;52.74
49459;BME280;35354;51.296;16.924;2023-05-10T05:14:27;99553.78;;;15.57;52.65
49459;BME280;35354;51.296;16.924;2023-05-10T05:16:52;99574.84;;;16.19;52.09
49459;BME280;35354;51.296;16.924;2023-05-10T05:19:18;99575.63;;;16.69;50.34
49459;BME280;35354;51.296;16.924;2023-05-10T05:21:43;99552.09;;;17.61;48.83
49459;BME280;35354;51.296;16.924;2023-05-10T05:24:09;99524.91;;;18.28;47.71
49459;BME280;35354;51.296;16.924;2023-05-10T05:26:35;99544.94;;;17.63;47.63
49459;BME280;35354;51.296;16.924;2023-05-10T05:29:00;99584.72;;;17.36;49.16
49459;BME280;35354;51.296;16.924;2023-05-10T05:31:26;99559.66;;;17.08;50.01
49459;BME280;35354;51.296;16.924;2023-05-10T05:33:51;99556.09;;;17.09;49.43
49459;BME280;35354;51.296;16.924;2023-05-10T05:36:17;99544.84;;;17.07;49.61
49459;BME280;35354;51.296;16.924;2023-05-10T05:38:42;99553.84;;;17.84;48.40
49459;BME280;35354;51.296;16.924;2023-05-10T05:41:08;99555.28;;;18.54;46.64
49459;BME280;35354;51.296;16.924;2023-05-10T05:43:33;99573.81;;;19.28;46.28
49459;BME280;35354;51.296;16.924;2023-05-10T05:45:58;99575.28;;;19.42;45.77
49459;BME280;35354;51.296;16.924;2023-05-10T05:48:24;99550.88;;;18.87;45.68
49459;BME280;35354;51.296;16.924;2023-05-10T05:50:49;99557.94;;;18.54;46.94
49459;BME280;35354;51.296;16.924;2023-05-10T05:53:15;99569.03;;;18.14;47.51
49459;BME280;35354;51.296;16.924;2023-05-10T05:58:19;99545.38;;;18.35;46.92
49459;BME280;35354;51.296;16.924;2023-05-10T06:00:44;99553.66;;;18.85;46.83
49459;BME280;35354;51.296;16.924;2023-05-10T06:03:10;99563.41;;;18.62;46.72
49459;BME280;35354;51.296;16.924;2023-05-10T06:05:35;99541.81;;;18.80;46.20
49459;BME280;35354;51.296;16.924;2023-05-10T06:08:00;99586.91;;;18.65;46.78
49459;BME280;35354;51.296;16.924;2023-05-10T06:10:26;99585.38;;;18.63;46.67
49459;BME280;35354;51.296;16.924;2023-05-10T06:12:51;99547.22;;;18.67;46.50
49459;BME280;35354;51.296;16.924;2023-05-10T06:15:17;99553.53;;;19.50;45.71
49459;BME280;35354;51.296;16.924;2023-05-10T06:17:43;99601.28;;;20.59;44.68
49459;BME280;35354;51.296;16.924;2023-05-10T06:20:09;99552.56;;;20.72;43.00
49459;BME280;35354;51.296;16.924;2023-05-10T06:22:35;99589.34;;;21.13;43.13
49459;BME280;35354;51.296;16.924;2023-05-10T06:25:00;99564.13;;;21.38;42.94
49459;BME280;35354;51.296;16.924;2023-05-10T06:27:26;99579.50;;;22.09;41.54
49459;BME280;35354;51.296;16.924;2023-05-10T06:29:52;99581.44;;;22.90;40.90
49459;BME280;35354;51.296;16.924;2023-05-10T06:32:17;99577.28;;;24.18;39.33
49459;BME280;35354;51.296;16.924;2023-05-10T06:34:42;99554.19;;;25.01;38.58
49459;BME280;35354;51.296;16.924;2023-05-10T06:37:08;99560.88;;;25.30;37.80
49459;BME280;35354;51.296;16.924;2023-05-10T06:39:34;99575.22;;;25.37;37.92
49459;BME280;35354;51.296;16.924;2023-05-10T06:41:59;99563.88;;;25.27;37.12
49459;BME280;35354;51.296;16.924;2023-05-10T06:44:24;99557.53;;;26.08;36.31
49459;BME280;35354;51.296;16.924;2023-05-10T06:46:50;99542.13;;;28.00;34.02
49459;BME280;35354;51.296;16.924;2023-05-10T06:49:16;99541.28;;;27.70;34.10
49459;BME280;35354;51.296;16.924;2023-05-10T06:51:41;99546.84;;;27.98;33.99
49459;BME280;35354;51.296;16.924;2023-05-10T06:54:06;99556.34;;;27.71;33.91
49459;BME280;35354;51.296;16.924;2023-05-10T06:56:32;99552.47;;;27.21;34.49
49459;BME280;35354;51.296;16.924;2023-05-10T06:58:57;99565.19;;;27.57;34.40
49459;BME280;35354;51.296;16.924;2023-05-10T07:01:22;99570.06;;;28.78;33.71
49459;BME280;35354;51.296;16.924;2023-05-10T07:03:48;99566.88;;;29.39;32.97
49459;BME280;35354;51.296;16.924;2023-05-10T07:06:13;99555.47;;;29.93;32.31
49459;BME280;35354;51.296;16.924;2023-05-10T07:08:38;99552.91;;;29.72;32.62
49459;BME280;35354;51.296;16.924;2023-05-10T07:11:05;99543.13;;;29.36;32.60
49459;BME280;35354;51.296;16.924;2023-05-10T07:13:34;99544.06;;;30.19;32.33
49459;BME280;35354;51.296;16.924;2023-05-10T07:16:00;99551.25;;;30.80;31.80
49459;BME280;35354;51.296;16.924;2023-05-10T07:18:27;99557.09;;;32.15;30.96
49459;BME280;35354;51.296;16.924;2023-05-10T07:20:53;99557.56;;;32.88;30.32
49459;BME280;35354;51.296;16.924;2023-05-10T07:23:18;99558.31;;;32.70;29.74
49459;BME280;35354;51.296;16.924;2023-05-10T07:25:45;99520.22;;;31.57;30.63
49459;BME280;35354;51.296;16.924;2023-05-10T07:28:11;99550.25;;;31.21;31.29
49459;BME280;35354;51.296;16.924;2023-05-10T07:30:36;99509.19;;;30.46;31.76
49459;BME280;35354;51.296;16.924;2023-05-10T07:33:02;99535.03;;;29.92;31.85
49459;BME280;35354;51.296;16.924;2023-05-10T07:35:27;99542.44;;;29.90;32.09
49459;BME280;35354;51.296;16.924;2023-05-10T07:37:53;99548.88;;;29.61;32.77
49459;BME280;35354;51.296;16.924;2023-05-10T07:40:18;99532.03;;;29.74;32.50
49459;BME280;35354;51.296;16.924;2023-05-10T07:42:43;99520.75;;;30.40;32.29
49459;BME280;35354;51.296;16.924;2023-05-10T07:45:09;99537.41;;;30.15;32.71
49459;BME280;35354;51.296;16.924;2023-05-10T07:47:34;99530.91;;;30.57;32.36
49459;BME280;35354;51.296;16.924;2023-05-10T07:50:00;99527.25;;;30.11;32.72
49459;BME280;35354;51.296;16.924;2023-05-10T07:52:25;99485.78;;;29.37;33.49
49459;BME280;35354;51.296;16.924;2023-05-10T07:54:51;99536.78;;;29.44;33.33
49459;BME280;35354;51.296;16.924;2023-05-10T07:57:17;99529.50;;;29.66;33.21
49459;BME280;35354;51.296;16.924;2023-05-10T07:59:43;99523.06;;;29.32;33.26
49459;BME280;35354;51.296;16.924;2023-05-10T08:02:09;99489.56;;;28.72;33.88
49459;BME280;35354;51.296;16.924;2023-05-10T08:04:35;99516.19;;;28.01;34.96
49459;BME280;35354;51.296;16.924;2023-05-10T08:07:00;99505.16;;;28.25;34.65
49459;BME280;35354;51.296;16.924;2023-05-10T08:09:25;99540.50;;;28.35;35.32
49459;BME280;35354;51.296;16.924;2023-05-10T08:11:50;99483.53;;;28.27;34.79
49459;BME280;35354;51.296;16.924;2023-05-10T08:14:16;99528.50;;;28.46;34.95
49459;BME280;35354;51.296;16.924;2023-05-10T08:16:42;99519.56;;;28.60;35.05
49459;BME280;35354;51.296;16.924;2023-05-10T08:19:07;99516.84;;;27.58;35.81
49459;BME280;35354;51.296;16.924;2023-05-10T08:21:32;99526.63;;;27.81;36.35
49459;BME280;35354;51.296;16.924;2023-05-10T08:23:58;99491.56;;;27.61;36.72
49459;BME280;35354;51.296;16.924;2023-05-10T08:26:23;99473.69;;;26.94;36.88
49459;BME280;35354;51.296;16.924;2023-05-10T08:28:48;99525.75;;;25.10;39.46
49459;BME280;35354;51.296;16.924;2023-05-10T08:31:15;99526.81;;;23.31;41.97
49459;BME280;35354;51.296;16.924;2023-05-10T08:33:41;99483.44;;;21.88;43.88
49459;BME280;35354;51.296;16.924;2023-05-10T08:36:06;99480.75;;;21.33;45.13
49459;BME280;35354;51.296;16.924;2023-05-10T08:38:31;99510.56;;;21.25;45.97
49459;BME280;35354;51.296;16.924;2023-05-10T08:40:57;99486.22;;;21.02;46.37
49459;BME280;35354;51.296;16.924;2023-05-10T08:43:26;99487.28;;;20.03;47.19
49459;BME280;35354;51.296;16.924;2023-05-10T08:45:54;99486.38;;;19.73;48.12
49459;BME280;35354;51.296;16.924;2023-05-10T08:48:23;99488.44;;;19.69;48.60
49459;BME280;35354;51.296;16.924;2023-05-10T08:50:52;99494.72;;;19.48;48.90
49459;BME280;35354;51.296;16.924;2023-05-10T08:53:18;99481.97;;;19.32;49.19
49459;BME280;35354;51.296;16.924;2023-05-10T08:55:44;99453.00;;;19.20;50.27
49459;BME280;35354;51.296;16.924;2023-05-10T08:58:11;99493.16;;;19.66;49.96
49459;BME280;35354;51.296;16.924;2023-05-10T09:00:36;99506.94;;;19.69;49.29
49459;BME280;35354;51.296;16.924;2023-05-10T09:03:03;99501.47;;;19.61;49.51
49459;BME280;35354;51.296;16.924;2023-05-10T09:05:29;99511.84;;;19.53;49.48
49459;BME280;35354;51.296;16.924;2023-05-10T09:07:54;99499.63;;;19.31;49.81
49459;BME280;35354;51.296;16.924;2023-05-10T09:10:20;99466.72;;;19.35;50.33
49459;BME280;35354;51.296;16.924;2023-05-10T09:12:48;99492.00;;;19.89;49.02
49459;BME280;35354;51.296;16.924;2023-05-10T09:15:15;99498.44;;;19.66;48.75
49459;BME280;35354;51.296;16.924;2023-05-10T09:17:42;99487.91;;;19.24;49.38
49459;BME280;35354;51.296;16.924;2023-05-10T09:20:09;99465.59;;;18.86;50.69
49459;BME280;35354;51.296;16.924;2023-05-10T09:22:34;99478.53;;;19.10;50.68
49459;BME280;35354;51.296;16.924;2023-05-10T09:25:18;99477.56;;;19.11;50.70
49459;BME280;35354;51.296;16.924;2023-05-10T09:27:45;99488.88;;;19.23;49.42
49459;BME280;35354;51.296;16.924;2023-05-10T09:30:31;99500.25;;;19.44;49.57
49459;BME280;35354;51.296;16.924;2023-05-10T09:32:58;99483.00;;;19.40;49.17
49459;BME280;35354;51.296;16.924;2023-05-10T09:35:29;99507.81;;;19.59;49.04
49459;BME280;35354;51.296;16.924;2023-05-10T09:37:59;99478.72;;;19.49;48.96
49459;BME280;35354;51.296;16.924;2023-05-10T09:40:27;99487.88;;;19.76;48.50
49459;BME280;35354;51.296;16.924;2023-05-10T09:43:06;99490.50;;;19.66;48.51
49459;BME280;35354;51.296;16.924;2023-05-10T09:45:33;99476.22;;;19.68;49.04
49459;BME280;35354;51.296;16.924;2023-05-10T09:48:00;99520.53;;;20.05;48.60
49459;BME280;35354;51.296;16.924;2023-05-10T09:50:26;99513.22;;;19.78;48.30
49459;BME280;35354;51.296;16.924;2023-05-10T09:52:54;99511.97;;;19.52;48.32
49459;BME280;35354;51.296;16.924;2023-05-10T09:58:05;99483.53;;;19.34;49.93
49459;BME280;35354;51.296;16.924;2023-05-10T10:00:37;99511.25;;;19.50;50.50
49459;BME280;35354;51.296;16.924;2023-05-10T10:03:04;99494.69;;;19.68;50.18
49459;BME280;35354;51.296;16.924;2023-05-10T10:05:33;99495.31;;;19.91;48.59
49459;BME280;35354;51.296;16.924;2023-05-10T10:08:00;99471.03;;;19.67;48.14
49459;BME280;35354;51.296;16.924;2023-05-10T10:10:26;99484.34;;;19.56;48.10
49459;BME280;35354;51.296;16.924;2023-05-10T10:12:52;99504.88;;;19.52;49.18
49459;BME280;35354;51.296;16.924;2023-05-10T10:15:18;99473.81;;;19.35;49.12
49459;BME280;35354;51.296;16.924;2023-05-10T10:17:44;99474.75;;;19.34;47.96
49459;BME280;35354;51.296;16.924;2023-05-10T10:20:10;99456.22;;;19.24;48.33
49459;BME280;35354;51.296;16.924;2023-05-10T10:22:36;99444.22;;;19.41;48.18
49459;BME280;35354;51.296;16.924;2023-05-10T10:25:02;99422.59;;;19.57;48.43
49459;BME280;35354;51.296;16.924;2023-05-10T10:33:39;99479.78;;;20.08;48.12
49459;BME280;35354;51.296;16.924;2023-05-10T10:36:06;99454.16;;;19.99;48.60
49459;BME280;35354;51.296;16.924;2023-05-10T10:41:33;99472.59;;;19.79;48.28
49459;BME280;35354;51.296;16.924;2023-05-10T10:52:41;99472.16;;;20.24;48.50
49459;BME280;35354;51.296;16.924;2023-05-10T10:57:50;99440.13;;;19.98;47.60
49459;BME280;35354;51.296;16.924;2023-05-10T11:00:28;99465.47;;;20.10;48.07
49459;BME280;35354;51.296;16.924;2023-05-10T11:02:56;99471.03;;;20.17;48.40
49459;BME280;35354;51.296;16.924;2023-05-10T11:05:45;99476.16;;;19.99;48.82
49459;BME280;35354;51.296;16.924;2023-05-10T11:08:32;99468.63;;;19.94;48.27
49459;BME280;35354;51.296;16.924;2023-05-10T11:13:45;99441.66;;;20.10;48.18
49459;BME280;35354;51.296;16.924;2023-05-10T11:21:18;99437.22;;;20.40;47.54
49459;BME280;35354;51.296;16.924;2023-05-10T11:23:47;99466.91;;;20.53;47.06
49459;BME280;35354;51.296;16.924;2023-05-10T11:26:13;99437.66;;;20.35;47.43
49459;BME280;35354;51.296;16.924;2023-05-10T11:28:47;99453.69;;;20.63;47.31
49459;BME280;35354;51.296;16.924;2023-05-10T11:31:16;99450.75;;;20.66;47.06
49459;BME280;35354;51.296;16.924;2023-05-10T11:33:46;99452.84;;;20.82;46.68
49459;BME280;35354;51.296;16.924;2023-05-10T11:36:18;99437.09;;;20.90;46.84
49459;BME280;35354;51.296;16.924;2023-05-10T11:38:44;99435.81;;;20.84;46.57
49459;BME280;35354;51.296;16.924;2023-05-10T11:41:11;99440.00;;;20.87;46.69
49459;BME280;35354;51.296;16.924;2023-05-10T11:43:38;99439.22;;;20.57;47.31
49459;BME280;35354;51.296;16.924;2023-05-10T11:46:08;99446.03;;;20.50;47.69
49459;BME280;35354;51.296;16.924;2023-05-10T11:48:34;99442.22;;;20.43;47.99
49459;BME280;35354;51.296;16.924;2023-05-10T11:51:01;99444.09;;;20.52;48.63
49459;BME280;35354;51.296;16.924;2023-05-10T11:53:27;99458.97;;;20.53;47.29
49459;BME280;35354;51.296;16.924;2023-05-10T11:55:53;99467.84;;;20.42;47.72
49459;BME280;35354;51.296;16.924;2023-05-10T11:58:18;99479.00;;;20.36;47.24
49459;BME280;35354;51.296;16.924;2023-05-10T12:00:45;99451.84;;;20.44;47.43
49459;BME280;35354;51.296;16.924;2023-05-10T12:03:11;99456.06;;;20.66;46.86
49459;BME280;35354;51.296;16.924;2023-05-10T12:05:37;99447.78;;;20.88;47.32
49459;BME280;35354;51.296;16.924;2023-05-10T12:08:13;99427.00;;;20.93;47.21
49459;BME280;35354;51.296;16.924;2023-05-10T12:10:39;99433.69;;;20.98;47.08
49459;BME280;35354;51.296;16.924;2023-05-10T12:13:04;99444.16;;;20.89;46.60
49459;BME280;35354;51.296;16.924;2023-05-10T12:15:30;99437.16;;;20.98;47.35
49459;BME280;35354;51.296;16.924;2023-05-10T12:17:56;99413.00;;;20.74;47.08
49459;BME280;35354;51.296;16.924;2023-05-10T12:20:23;99445.44;;;20.76;47.44
49459;BME280;35354;51.296;16.924;2023-05-10T12:22:51;99437.75;;;20.43;47.67
49459;BME280;35354;51.296;16.924;2023-05-10T12:25:18;99419.81;;;19.99;47.62
49459;BME280;35354;51.296;16.924;2023-05-10T12:27:57;99424.38;;;19.97;48.25
49459;BME280;35354;51.296;16.924;2023-05-10T12:32:49;99414.06;;;19.84;49.06
49459;BME280;35354;51.296;16.924;2023-05-10T12:35:14;99433.44;;;20.13;48.70
49459;BME280;35354;51.296;16.924;2023-05-10T12:37:42;99445.72;;;20.34;47.55
49459;BME280;35354;51.296;16.924;2023-05-10T12:40:09;99456.84;;;20.47;47.72
49459;BME280;35354;51.296;16.924;2023-05-10T12:42:36;99460.75;;;20.43;47.47
49459;BME280;35354;51.296;16.924;2023-05-10T12:45:03;99444.63;;;20.56;47.36
49459;BME280;35354;51.296;16.924;2023-05-10T12:47:29;99421.91;;;20.63;47.08
49459;BME280;35354;51.296;16.924;2023-05-10T12:49:55;99430.13;;;20.60;47.05
49459;BME280;35354;51.296;16.924;2023-05-10T12:52:20;99436.97;;;20.62;47.03
49459;BME280;35354;51.296;16.924;2023-05-10T12:54:46;99424.44;;;20.35;47.43
49459;BME280;35354;51.296;16.924;2023-05-10T12:57:12;99448.53;;;20.61;47.81
49459;BME280;35354;51.296;16.924;2023-05-10T12:59:38;99427.91;;;20.46;47.22
49459;BME280;35354;51.296;16.924;2023-05-10T13:02:03;99427.06;;;20.35;47.62
49459;BME280;35354;51.296;16.924;2023-05-10T13:04:28;99447.69;;;20.51;47.83
49459;BME280;35354;51.296;16.924;2023-05-10T13:06:54;99439.56;;;20.43;47.43
49459;BME280;35354;51.296;16.924;2023-05-10T13:09:23;99446.44;;;20.65;47.38
49459;BME280;35354;51.296;16.924;2023-05-10T13:11:48;99429.41;;;20.77;47.46
49459;BME280;35354;51.296;16.924;2023-05-10T13:14:14;99409.63;;;20.91;47.16
49459;BME280;35354;51.296;16.924;2023-05-10T13:16:39;99454.00;;;21.16;47.07
49459;BME280;35354;51.296;16.924;2023-05-10T13:19:05;99435.34;;;21.08;46.57
49459;BME280;35354;51.296;16.924;2023-05-10T13:21:30;99425.88;;;21.06;46.64
49459;BME280;35354;51.296;16.924;2023-05-10T13:23:55;99435.22;;;21.00;46.52
49459;BME280;35354;51.296;16.924;2023-05-10T13:26:21;99419.56;;;20.70;46.40
49459;BME280;35354;51.296;16.924;2023-05-10T13:28:46;99420.41;;;20.51;46.04
49459;BME280;35354;51.296;16.924;2023-05-10T13:31:12;99441.94;;;20.46;46.99
49459;BME280;35354;51.296;16.924;2023-05-10T13:33:37;99447.53;;;20.33;46.84
49459;BME280;35354;51.296;16.924;2023-05-10T13:36:02;99444.03;;;20.23;47.34
49459;BME280;35354;51.296;16.924;2023-05-10T13:38:28;99414.25;;;20.02;47.17
49459;BME280;35354;51.296;16.924;2023-05-10T13:40:53;99435.66;;;20.08;47.35
49459;BME280;35354;51.296;16.924;2023-05-10T13:43:19;99444.31;;;20.30;47.45